Airfield :
LOGIN :

Register | Disclaimer

   EN    FR    IT 

 










Legend :    VFR   Marginal VFR   IFR   Intensive IFR   Very Intensive IFR
Visi :
Ceiling :
>= 8 km
>= 3000ft
5 to 8 km
1000 to 3000 ft
1500m to 5 km
500 to 1000 ft
800 to 1500m
200 to 500 ft
< 800m
< 200 ft
Symbols :   Thunderstorms  Fog  Heavy snow  Heavy precipitations  Wind > 20 kt
SIGMETs :     Misc.  Thunderstorms  Icing  Turbulence  Mountain Waves  Volcanic Ashes






- Airport Elevation : 348 ft
- IATA code : TSR


LRTR - Timisoara

CURRENT METAR :
  • 011200Z VRB02KT CAVOK 06/M06 Q1020

EXPIRED METARs :
  • 011130Z VRB02KT CAVOK 07/M05 Q1021
  • 011100Z 18004KT 140V230 CAVOK 07/M05 Q1021
  • 011030Z 07005KT 040V130 9999 BKN047 06/M04 Q1021
  • 011000Z 10007KT 050V140 9999 BKN045 06/M05 Q1021
  • 010930Z 08003KT 360V130 9999 BKN042 06/M05 Q1021

TAF TAF LRTR
Valid from the 01 at 12:00 until the 02 at 12:00 UTC


011100Z 0112/0212 VRB04KT CAVOK



MET'MAP, your aeronautical weather chart ! - Copyright ORBIFLY December 2007 - Disclaimer

ORBIFLY MET'MAP TEAM :

Programming & Development : Alexandra Zaïnal
Concept & original design : Baudouin d'Aumeries
Assistance for programming : Marc-Olivier Méhu
Technical & hardware support : Manuel Goepfert

Contact : metmap@orbifly.com




SOURCES & CREDITS :

   NOAA